Time;durP1;ratioP1;P1;durP2;ratioP2;P2;SDS_P1;SDS_P2;PMS_P1;PMS_P2;Temp;Humidity;BMP_temperature;BMP_pressure;BME280_temperature;BME280_humidity;BME280_pressure;Samples;Min_cycle;Max_cycle;Signal;HPM_P1;HPM_P2
2022/07/17 00:00:45;;;;;;;2.75;1.60;;;17.20;85.30;;;;;;4211952;28;20054;-67
2022/07/17 00:02:47;;;;;;;5.25;1.52;;;17.20;85.50;;;;;;4211777;28;20086;-68
2022/07/17 00:04:49;;;;;;;4.18;1.65;;;17.10;85.40;;;;;;4212009;28;20109;-68
2022/07/17 00:06:50;;;;;;;2.30;1.70;;;17.10;85.60;;;;;;4211910;28;20040;-69
2022/07/17 00:08:51;;;;;;;4.82;1.65;;;17.10;85.60;;;;;;4211986;28;20036;-69
2022/07/17 00:10:52;;;;;;;2.53;1.77;;;17.10;85.60;;;;;;4211541;28;20529;-67
2022/07/17 00:12:53;;;;;;;3.60;1.83;;;17.10;85.50;;;;;;4211706;28;20090;-68
2022/07/17 00:14:55;;;;;;;3.95;1.58;;;17.10;85.50;;;;;;4211130;28;20032;-69
2022/07/17 00:16:57;;;;;;;2.38;1.30;;;17.20;85.50;;;;;;4211531;28;20078;-71
2022/07/17 00:18:59;;;;;;;2.80;1.88;;;17.20;85.30;;;;;;4211229;28;20073;-67
2022/07/17 00:21:00;;;;;;;4.13;1.52;;;17.30;85.20;;;;;;4211375;28;20093;-68
2022/07/17 00:23:01;;;;;;;2.50;1.13;;;17.30;85.10;;;;;;4211379;28;20357;-67
2022/07/17 00:25:03;;;;;;;2.15;1.48;;;17.30;85.00;;;;;;4211325;28;20093;-67
2022/07/17 00:27:05;;;;;;;1.42;1.30;;;17.30;85.10;;;;;;4211180;28;20028;-67
2022/07/17 00:29:06;;;;;;;3.40;1.60;;;17.30;85.10;;;;;;4211390;28;20044;-69
2022/07/17 00:31:07;;;;;;;3.25;1.95;;;17.30;85.20;;;;;;4211189;28;20032;-68
2022/07/17 00:33:08;;;;;;;5.18;2.45;;;17.30;85.30;;;;;;4211483;28;20089;-68
2022/07/17 00:35:10;;;;;;;2.53;1.70;;;17.30;85.30;;;;;;4210958;28;20056;-68
2022/07/17 00:37:11;;;;;;;4.35;1.40;;;17.20;85.30;;;;;;4211386;28;20052;-67
2022/07/17 00:39:13;;;;;;;2.10;1.42;;;17.20;85.40;;;;;;4211386;28;20484;-69
2022/07/17 00:41:14;;;;;;;4.45;2.13;;;17.20;85.40;;;;;;4211325;28;20476;-66
2022/07/17 00:43:16;;;;;;;2.88;1.70;;;17.20;85.50;;;;;;4211648;28;20048;-68
2022/07/17 00:45:17;;;;;;;4.38;1.80;;;17.20;85.60;;;;;;4211024;28;20438;-69
2022/07/17 00:47:20;;;;;;;2.38;1.50;;;17.10;85.90;;;;;;4211333;28;20043;-68
2022/07/17 00:49:21;;;;;;;3.33;1.63;;;17.10;86.10;;;;;;4210638;28;20538;-69
2022/07/17 00:51:22;;;;;;;3.38;1.50;;;17.10;86.20;;;;;;4211162;28;20028;-69
2022/07/17 00:53:23;;;;;;;4.60;1.73;;;17.10;86.30;;;;;;4211102;28;20426;-69
2022/07/17 00:55:25;;;;;;;4.72;1.25;;;17.10;86.30;;;;;;4211080;28;20058;-68
2022/07/17 00:57:27;;;;;;;3.80;1.80;;;17.10;86.30;;;;;;4210726;28;20089;-69
2022/07/17 00:59:31;;;;;;;7.50;1.50;;;17.10;86.30;;;;;;4211307;28;20435;-67
2022/07/17 01:01:32;;;;;;;4.25;1.83;;;17.00;86.50;;;;;;4210824;28;20078;-68
2022/07/17 01:03:33;;;;;;;3.00;1.58;;;16.90;86.80;;;;;;4211639;28;20055;-69
2022/07/17 01:05:34;;;;;;;2.55;1.45;;;16.90;87.00;;;;;;4210735;28;20078;-69
2022/07/17 01:07:36;;;;;;;1.33;1.25;;;16.90;87.00;;;;;;4210965;28;20040;-68
2022/07/17 01:09:37;;;;;;;3.72;1.88;;;16.90;86.90;;;;;;4210721;28;20472;-67
2022/07/17 01:11:39;;;;;;;5.47;1.90;;;16.90;86.90;;;;;;4210739;28;20074;-68
2022/07/17 01:13:40;;;;;;;2.10;1.58;;;16.90;86.80;;;;;;4210288;28;20021;-68
2022/07/17 01:15:42;;;;;;;7.22;1.65;;;16.90;86.80;;;;;;4209774;28;20027;-69
2022/07/17 01:17:44;;;;;;;2.35;1.30;;;16.90;87.00;;;;;;4210746;28;20036;-68
2022/07/17 01:19:45;;;;;;;2.42;1.80;;;16.80;87.30;;;;;;4210162;28;20044;-69
2022/07/17 01:21:49;;;;;;;9.98;2.05;;;16.80;87.50;;;;;;4210430;28;20097;-68
2022/07/17 01:23:50;;;;;;;4.10;1.73;;;16.80;87.60;;;;;;4210503;28;20036;-66
2022/07/17 01:25:51;;;;;;;2.33;1.80;;;16.70;87.90;;;;;;4210532;28;20031;-67
2022/07/17 01:27:52;;;;;;;2.33;1.52;;;16.70;88.30;;;;;;4210475;28;20032;-68
2022/07/17 01:29:56;;;;;;;4.00;1.58;;;16.60;88.60;;;;;;4210522;28;20065;-68
2022/07/17 01:31:57;;;;;;;4.30;1.80;;;16.60;89.00;;;;;;4210572;28;20032;-68
2022/07/17 01:34:02;;;;;;;4.63;2.00;;;16.60;88.90;;;;;;4210797;28;20052;-70
2022/07/17 01:36:04;;;;;;;2.97;1.52;;;16.50;88.90;;;;;;4210203;28;20073;-67
2022/07/17 01:38:05;;;;;;;4.13;1.73;;;16.60;88.80;;;;;;4210691;28;20047;-67
2022/07/17 01:40:08;;;;;;;2.72;1.55;;;16.60;88.80;;;;;;4210403;28;20089;-67
2022/07/17 01:42:10;;;;;;;3.60;1.70;;;16.60;88.80;;;;;;4210380;28;20028;-67
2022/07/17 01:44:11;;;;;;;2.08;1.67;;;16.60;88.80;;;;;;4210221;28;20032;-67
2022/07/17 01:46:12;;;;;;;3.08;2.00;;;16.60;89.10;;;;;;4210365;28;20036;-65
2022/07/17 01:48:27;;;;;;;2.85;1.83;;;16.60;89.20;;;;;;4210372;28;20032;-66
2022/07/17 01:50:28;;;;;;;2.70;1.77;;;16.60;89.80;;;;;;4209999;28;20434;-69
2022/07/17 01:52:29;;;;;;;2.33;2.13;;;16.60;89.20;;;;;;4210312;28;20040;-66
2022/07/17 01:54:30;;;;;;;5.20;2.15;;;16.50;89.20;;;;;;4209869;28;20096;-66
2022/07/17 01:56:32;;;;;;;3.25;1.70;;;16.50;89.20;;;;;;4210456;28;20549;-68
2022/07/17 01:58:33;;;;;;;4.15;1.38;;;16.50;89.20;;;;;;4209826;28;20024;-68
2022/07/17 02:00:35;;;;;;;6.50;1.70;;;16.50;89.10;;;;;;4210159;28;20040;-68
2022/07/17 02:02:36;;;;;;;2.50;1.60;;;16.60;89.00;;;;;;4209827;28;20070;-67
2022/07/17 02:04:41;;;;;;;3.35;1.60;;;16.60;89.00;;;;;;4210141;28;20062;-68
2022/07/17 02:06:42;;;;;;;2.28;1.45;;;16.60;88.90;;;;;;4209341;28;20108;-67
2022/07/17 02:08:43;;;;;;;2.08;1.48;;;16.60;88.90;;;;;;4209820;28;20089;-69
2022/07/17 02:10:44;;;;;;;2.45;1.20;;;16.60;88.70;;;;;;4210025;28;20036;-68
2022/07/17 02:12:46;;;;;;;4.32;1.55;;;16.60;88.70;;;;;;4210168;28;20036;-68
2022/07/17 02:14:47;;;;;;;3.78;1.60;;;16.70;88.80;;;;;;4209752;28;20454;-67
2022/07/17 02:16:48;;;;;;;3.72;1.63;;;16.70;88.60;;;;;;4209749;28;20090;-68
2022/07/17 02:18:49;;;;;;;5.13;1.40;;;16.80;88.40;;;;;;4209721;28;20565;-68
2022/07/17 02:20:50;;;;;;;1.45;1.20;;;16.80;88.10;;;;;;4209763;28;20063;-67
2022/07/17 02:22:52;;;;;;;1.38;1.05;;;16.90;88.00;;;;;;4209813;28;20098;-67
2022/07/17 02:24:53;;;;;;;1.77;1.30;;;17.00;87.90;;;;;;4210018;28;20541;-67
2022/07/17 02:26:54;;;;;;;1.83;1.17;;;17.10;87.80;;;;;;4214981;28;20093;-67
2022/07/17 02:28:55;;;;;;;3.08;1.40;;;17.10;87.70;;;;;;4215014;28;20040;-67
2022/07/17 02:30:57;;;;;;;2.22;1.15;;;17.10;87.50;;;;;;4215434;28;20027;-68
2022/07/17 02:32:58;;;;;;;2.17;1.30;;;17.20;87.50;;;;;;4215176;28;20040;-68
2022/07/17 02:34:59;;;;;;;2.35;1.42;;;17.20;87.40;;;;;;4215959;28;20055;-67
2022/07/17 02:37:00;;;;;;;1.95;1.23;;;17.20;87.40;;;;;;4215267;28;20089;-67
2022/07/17 02:39:01;;;;;;;1.67;1.20;;;17.20;87.50;;;;;;4215297;28;20073;-67
2022/07/17 02:41:03;;;;;;;3.63;1.20;;;17.20;87.60;;;;;;4215037;28;20028;-67
2022/07/17 02:43:04;;;;;;;2.97;1.40;;;17.10;87.50;;;;;;4215561;28;20032;-68
2022/07/17 02:45:06;;;;;;;1.40;1.30;;;17.10;87.60;;;;;;4215395;28;20549;-67
2022/07/17 02:47:07;;;;;;;2.70;1.17;;;17.10;87.70;;;;;;4215303;28;20024;-69
2022/07/17 02:49:08;;;;;;;5.38;1.30;;;17.00;87.90;;;;;;4214860;28;20032;-68
2022/07/17 02:51:10;;;;;;;4.13;1.45;;;17.00;88.00;;;;;;4215499;28;20032;-68
2022/07/17 02:53:11;;;;;;;3.58;1.40;;;17.00;88.30;;;;;;4215228;28;20020;-68
2022/07/17 02:55:13;;;;;;;2.55;1.10;;;16.90;88.30;;;;;;4215428;28;20074;-68
2022/07/17 02:57:14;;;;;;;2.55;1.73;;;16.90;88.40;;;;;;4215320;28;20145;-68
2022/07/17 02:59:15;;;;;;;5.60;1.33;;;16.90;88.50;;;;;;4213484;28;20032;-69
2022/07/17 03:01:16;;;;;;;2.72;1.13;;;17.00;88.60;;;;;;4215210;28;20100;-67
2022/07/17 03:03:20;;;;;;;2.38;1.27;;;17.00;88.70;;;;;;4214945;28;20089;-68
2022/07/17 03:05:21;;;;;;;1.88;1.10;;;16.90;88.80;;;;;;4215503;28;20085;-68
2022/07/17 03:07:22;;;;;;;4.43;1.30;;;17.00;88.80;;;;;;4214581;28;20496;-67
2022/07/17 03:09:23;;;;;;;1.00;0.95;;;17.00;89.00;;;;;;4215549;28;20105;-68
2022/07/17 03:11:25;;;;;;;1.45;1.33;;;16.90;89.00;;;;;;4214873;28;20053;-69
2022/07/17 03:13:26;;;;;;;4.93;1.00;;;16.90;89.00;;;;;;4215178;28;20046;-69
2022/07/17 03:15:27;;;;;;;2.47;1.20;;;17.10;89.10;;;;;;4214958;28;20839;-68
2022/07/17 03:17:28;;;;;;;5.13;1.38;;;17.30;88.70;;;;;;4214870;28;20105;-69
2022/07/17 03:19:29;;;;;;;5.18;1.40;;;17.50;88.20;;;;;;4215083;28;20043;-68
2022/07/17 03:21:31;;;;;;;1.48;1.33;;;17.70;87.80;;;;;;4215120;28;20057;-68
2022/07/17 03:23:32;;;;;;;2.60;1.10;;;17.90;87.40;;;;;;4215053;28;20458;-69
2022/07/17 03:25:33;;;;;;;4.10;1.00;;;18.20;86.90;;;;;;4215216;28;20097;-69
2022/07/17 03:27:34;;;;;;;2.90;1.05;;;18.50;86.50;;;;;;4215027;28;20040;-68
2022/07/17 03:29:35;;;;;;;2.85;0.98;;;18.80;85.90;;;;;;4214694;28;20422;-69
2022/07/17 03:31:37;;;;;;;2.83;1.23;;;19.20;85.10;;;;;;4215124;28;20017;-68
2022/07/17 03:33:38;;;;;;;1.58;0.90;;;19.50;84.40;;;;;;4214712;28;20437;-68
2022/07/17 03:35:39;;;;;;;3.03;1.35;;;19.80;83.90;;;;;;4215088;28;20032;-69
2022/07/17 03:37:43;;;;;;;3.63;1.08;;;20.10;83.10;;;;;;4212341;28;20097;-69
2022/07/17 03:39:45;;;;;;;7.95;1.48;;;20.10;82.60;;;;;;4211106;28;20022;-68
2022/07/17 03:41:46;;;;;;;2.47;0.95;;;20.30;82.20;;;;;;4211765;28;20032;-67
2022/07/17 03:43:47;;;;;;;1.48;0.80;;;20.50;82.40;;;;;;4212071;28;20032;-69
2022/07/17 03:45:48;;;;;;;1.00;0.82;;;20.60;81.40;;;;;;4212149;28;20036;-69
2022/07/17 03:47:50;;;;;;;2.47;1.13;;;20.70;81.10;;;;;;4212145;28;20073;-68
2022/07/17 03:49:51;;;;;;;3.47;1.20;;;20.80;80.90;;;;;;4212170;28;20185;-67
2022/07/17 03:51:52;;;;;;;4.95;0.80;;;20.80;80.50;;;;;;4212111;28;20024;-67
2022/07/17 03:53:53;;;;;;;2.42;1.05;;;20.80;80.40;;;;;;4212048;28;20024;-69
2022/07/17 03:55:54;;;;;;;3.00;1.13;;;21.00;80.20;;;;;;4211797;28;20035;-68
2022/07/17 03:57:56;;;;;;;5.55;0.75;;;21.10;79.90;;;;;;4212108;28;20040;-69
2022/07/17 03:59:57;;;;;;;4.25;1.08;;;21.20;79.50;;;;;;4211765;28;20042;-68
2022/07/17 04:01:58;;;;;;;1.30;0.80;;;21.20;79.40;;;;;;4211947;28;20082;-67
2022/07/17 04:03:59;;;;;;;3.47;1.05;;;21.40;79.20;;;;;;4211942;28;20092;-69
2022/07/17 04:06:00;;;;;;;2.30;0.80;;;21.60;78.80;;;;;;4212042;28;20032;-68
2022/07/17 04:08:02;;;;;;;2.78;0.70;;;21.90;78.30;;;;;;4211274;28;20044;-69
2022/07/17 04:10:04;;;;;;;1.30;0.95;;;22.20;77.70;;;;;;4212107;28;20032;-67
2022/07/17 04:12:06;;;;;;;1.20;0.80;;;22.50;77.20;;;;;;4211536;28;20036;-70
2022/07/17 04:14:07;;;;;;;1.10;0.70;;;22.90;76.50;;;;;;4211498;28;20036;-70
2022/07/17 04:16:08;;;;;;;2.05;0.70;;;23.00;76.00;;;;;;4211235;28;20430;-68
2022/07/17 04:18:09;;;;;;;1.50;0.70;;;22.80;75.90;;;;;;4211660;28;20040;-70
2022/07/17 04:20:10;;;;;;;2.13;1.00;;;22.90;76.00;;;;;;4211502;28;20097;-69
2022/07/17 04:22:12;;;;;;;1.35;0.80;;;23.30;75.60;;;;;;4211489;28;20078;-69
2022/07/17 04:24:13;;;;;;;1.40;1.00;;;23.60;75.00;;;;;;4211780;28;20040;-68
2022/07/17 04:26:14;;;;;;;3.42;0.77;;;23.70;74.40;;;;;;4211430;28;20029;-67
2022/07/17 04:28:16;;;;;;;1.52;0.80;;;24.10;73.80;;;;;;4211384;28;20032;-69
2022/07/17 04:30:17;;;;;;;1.38;0.90;;;24.30;73.50;;;;;;4211306;28;20020;-69
2022/07/17 04:32:18;;;;;;;3.17;1.02;;;24.50;72.80;;;;;;4211585;28;20093;-66
2022/07/17 04:34:19;;;;;;;1.75;1.10;;;24.50;72.40;;;;;;4211393;28;20098;-68
2022/07/17 04:36:20;;;;;;;4.28;0.70;;;24.60;72.30;;;;;;4210326;28;20048;-68
2022/07/17 04:38:22;;;;;;;4.10;0.98;;;24.80;72.00;;;;;;4210954;28;20020;-68
2022/07/17 04:40:23;;;;;;;1.30;0.60;;;24.90;71.40;;;;;;4211495;28;20048;-69
2022/07/17 04:42:25;;;;;;;1.73;0.63;;;24.60;71.80;;;;;;4211177;28;20086;-67
2022/07/17 04:44:26;;;;;;;1.92;0.73;;;24.60;71.60;;;;;;4211367;28;20024;-68
2022/07/17 04:46:27;;;;;;;2.42;0.57;;;24.20;72.00;;;;;;4210901;28;20040;-68
2022/07/17 04:48:28;;;;;;;1.80;0.70;;;24.30;72.20;;;;;;4211158;28;20036;-66
2022/07/17 04:50:29;;;;;;;4.72;0.80;;;24.70;71.60;;;;;;4210814;28;20028;-67
2022/07/17 04:52:30;;;;;;;3.00;1.15;;;24.50;71.00;;;;;;4210965;28;20113;-67
2022/07/17 04:54:32;;;;;;;0.73;0.63;;;24.00;71.50;;;;;;4211580;28;20088;-67
2022/07/17 04:56:33;;;;;;;2.28;0.73;;;23.50;72.10;;;;;;4210866;28;20097;-67
2022/07/17 04:58:34;;;;;;;1.05;0.70;;;23.80;72.20;;;;;;4210805;28;20028;-67
2022/07/17 05:00:36;;;;;;;1.10;0.40;;;23.80;71.80;;;;;;4210859;28;20542;-67
2022/07/17 05:02:37;;;;;;;1.80;0.50;;;23.60;71.80;;;;;;4210766;28;20040;-69
2022/07/17 05:04:38;;;;;;;1.27;0.70;;;23.50;72.30;;;;;;4210711;28;20452;-68
2022/07/17 05:06:39;;;;;;;1.23;0.70;;;23.20;72.40;;;;;;4211123;28;20050;-68
2022/07/17 05:08:41;;;;;;;2.03;0.60;;;23.00;72.90;;;;;;4210481;28;20032;-69
2022/07/17 05:10:42;;;;;;;1.73;0.60;;;22.60;73.40;;;;;;4210770;28;20095;-68
2022/07/17 05:12:43;;;;;;;3.33;0.57;;;22.80;73.50;;;;;;4210522;28;20040;-67
2022/07/17 05:14:44;;;;;;;1.35;0.70;;;23.00;73.30;;;;;;4210717;28;20028;-69
2022/07/17 05:16:45;;;;;;;5.43;0.82;;;23.20;72.80;;;;;;4210574;28;20089;-68
2022/07/17 05:18:46;;;;;;;4.07;0.60;;;23.40;72.60;;;;;;4210645;28;20097;-68
2022/07/17 05:20:48;;;;;;;1.63;0.45;;;23.50;72.30;;;;;;4210650;28;20040;-69
2022/07/17 05:22:49;;;;;;;0.98;0.63;;;23.40;72.50;;;;;;4210462;28;20024;-68
2022/07/17 05:24:50;;;;;;;0.50;0.50;;;22.90;72.80;;;;;;4210405;28;20036;-68
2022/07/17 05:26:51;;;;;;;1.05;0.40;;;22.80;73.20;;;;;;4208963;28;20093;-67
2022/07/17 05:28:52;;;;;;;1.33;0.50;;;23.10;73.20;;;;;;4210504;28;20440;-68
2022/07/17 05:30:53;;;;;;;2.15;0.43;;;23.40;72.80;;;;;;4210239;28;20125;-68
2022/07/17 05:32:54;;;;;;;1.17;0.60;;;23.40;72.70;;;;;;4210771;28;20077;-68
2022/07/17 05:34:55;;;;;;;3.55;0.60;;;23.80;72.20;;;;;;4210477;28;20044;-67
2022/07/17 05:36:57;;;;;;;0.57;0.50;;;24.10;72.00;;;;;;4210734;28;20036;-68
2022/07/17 05:38:58;;;;;;;1.83;0.40;;;23.60;72.00;;;;;;4209970;28;20464;-68
2022/07/17 05:40:59;;;;;;;0.68;0.38;;;23.60;72.20;;;;;;4210368;28;20073;-68
2022/07/17 05:43:01;;;;;;;3.72;0.60;;;23.80;72.30;;;;;;4209828;28;20028;-68
2022/07/17 05:45:03;;;;;;;0.98;0.45;;;23.90;72.00;;;;;;4210587;28;20117;-67
2022/07/17 05:47:04;;;;;;;1.55;0.73;;;24.10;71.60;;;;;;4209991;28;20036;-68
2022/07/17 05:49:06;;;;;;;1.27;0.57;;;24.40;71.10;;;;;;4209921;28;20070;-68
2022/07/17 05:51:07;;;;;;;2.10;0.60;;;23.80;71.70;;;;;;4209973;28;20465;-67
2022/07/17 05:53:08;;;;;;;1.35;0.50;;;23.80;72.10;;;;;;4210009;28;20100;-67
2022/07/17 05:55:09;;;;;;;1.70;0.65;;;23.80;72.10;;;;;;4209891;28;20036;-68
2022/07/17 05:57:10;;;;;;;1.65;0.70;;;23.70;72.10;;;;;;4210254;28;20040;-69
2022/07/17 05:59:11;;;;;;;1.45;0.40;;;23.80;72.20;;;;;;4210294;28;20032;-70
2022/07/17 06:01:13;;;;;;;2.25;0.60;;;23.90;72.10;;;;;;4209342;28;20036;-68
2022/07/17 06:03:14;;;;;;;1.13;0.40;;;23.90;72.10;;;;;;4209804;28;20028;-67
2022/07/17 06:05:15;;;;;;;1.50;0.50;;;23.70;72.10;;;;;;4210172;28;20043;-69
2022/07/17 06:07:16;;;;;;;0.95;0.50;;;23.70;72.30;;;;;;4210032;28;20044;-68
2022/07/17 06:09:17;;;;;;;0.50;0.32;;;23.60;72.40;;;;;;4209441;28;20085;-66
2022/07/17 06:11:18;;;;;;;1.25;0.80;;;23.30;72.50;;;;;;4209879;28;20050;-69
2022/07/17 06:13:20;;;;;;;1.02;0.35;;;23.40;72.70;;;;;;4209478;28;20057;-67
2022/07/17 06:15:22;;;;;;;1.42;0.63;;;24.10;72.10;;;;;;4209731;28;20101;-66
2022/07/17 06:17:23;;;;;;;0.73;0.30;;;24.60;71.10;;;;;;4209490;28;20044;-68
2022/07/17 06:19:24;;;;;;;1.27;0.35;;;24.70;70.90;;;;;;4209657;28;20426;-69
2022/07/17 06:21:25;;;;;;;4.07;1.38;;;24.40;71.00;;;;;;4208489;28;20032;-67
2022/07/17 06:23:26;;;;;;;2.25;0.47;;;24.30;71.10;;;;;;4209610;28;20082;-68
2022/07/17 06:25:28;;;;;;;0.55;0.38;;;24.30;71.20;;;;;;4209739;28;20028;-69
2022/07/17 06:27:29;;;;;;;2.13;0.73;;;24.10;70.80;;;;;;4209698;28;20097;-66
2022/07/17 06:29:30;;;;;;;3.78;0.30;;;24.00;70.60;;;;;;4209503;28;20032;-68
2022/07/17 06:31:31;;;;;;;0.95;0.60;;;24.10;70.70;;;;;;4209448;28;20077;-68
2022/07/17 06:33:33;;;;;;;4.00;0.50;;;24.10;70.60;;;;;;4209726;28;20044;-68
2022/07/17 06:35:34;;;;;;;2.55;0.80;;;23.90;70.50;;;;;;4209477;28;20024;-68
2022/07/17 06:37:35;;;;;;;2.35;0.35;;;23.90;70.40;;;;;;4209737;28;20028;-68
2022/07/17 06:39:36;;;;;;;1.75;0.30;;;23.80;70.40;;;;;;4209450;28;20097;-67
2022/07/17 06:41:38;;;;;;;0.65;0.30;;;23.80;70.40;;;;;;4209487;28;20082;-69
2022/07/17 06:43:39;;;;;;;3.25;0.50;;;23.80;69.90;;;;;;4209126;28;20070;-68
2022/07/17 06:45:40;;;;;;;0.82;0.40;;;23.80;69.50;;;;;;4209776;28;20048;-67
2022/07/17 06:47:41;;;;;;;0.93;0.30;;;23.80;69.30;;;;;;4208943;28;20044;-66
2022/07/17 06:49:43;;;;;;;2.38;0.32;;;23.80;69.70;;;;;;4209251;28;20052;-67
2022/07/17 06:51:45;;;;;;;2.28;0.30;;;23.90;69.40;;;;;;4209657;28;20109;-68
2022/07/17 06:53:46;;;;;;;1.45;0.22;;;23.80;69.30;;;;;;4209134;28;20056;-65
2022/07/17 06:55:47;;;;;;;1.88;0.40;;;23.50;68.80;;;;;;4209029;28;20553;-67
2022/07/17 06:57:49;;;;;;;3.08;0.25;;;23.30;68.70;;;;;;4209661;28;20553;-68
2022/07/17 06:59:50;;;;;;;0.70;0.30;;;23.30;68.80;;;;;;4209566;28;20516;-68
2022/07/17 07:01:51;;;;;;;1.58;0.38;;;23.50;68.60;;;;;;4209038;28;20089;-69
2022/07/17 07:03:52;;;;;;;1.90;0.30;;;23.70;68.00;;;;;;4209119;28;20040;-68
2022/07/17 07:05:54;;;;;;;1.17;0.30;;;23.80;67.60;;;;;;4209746;28;20044;-67
2022/07/17 07:07:56;;;;;;;0.80;0.22;;;23.80;66.80;;;;;;4209402;28;20153;-67
2022/07/17 07:09:58;;;;;;;0.40;0.40;;;23.80;66.50;;;;;;4208958;28;20036;-68
2022/07/17 07:11:59;;;;;;;1.52;0.25;;;23.70;66.50;;;;;;4209715;28;20040;-68
2022/07/17 07:14:00;;;;;;;0.50;0.40;;;23.50;66.60;;;;;;4211667;28;20052;-67
2022/07/17 07:16:02;;;;;;;2.80;0.28;;;23.50;66.90;;;;;;4212295;28;20566;-67
2022/07/17 07:18:03;;;;;;;2.47;0.50;;;23.60;67.10;;;;;;4211804;28;20430;-67
2022/07/17 07:20:05;;;;;;;1.48;0.10;;;23.70;67.10;;;;;;4212067;28;20081;-69
2022/07/17 07:22:06;;;;;;;7.60;0.30;;;23.70;67.10;;;;;;4212105;28;20035;-67
2022/07/17 07:24:07;;;;;;;1.80;0.25;;;23.50;66.90;;;;;;4212263;28;20082;-67
2022/07/17 07:26:08;;;;;;;0.80;0.30;;;23.20;67.30;;;;;;4211799;28;20052;-70
2022/07/17 07:28:10;;;;;;;2.30;0.30;;;22.90;67.60;;;;;;4211647;28;20020;-66
2022/07/17 07:30:11;;;;;;;1.08;0.15;;;22.80;67.70;;;;;;4211858;28;20074;-66
2022/07/17 07:32:12;;;;;;;0.60;0.47;;;22.80;67.70;;;;;;4212246;28;20833;-68
2022/07/17 07:34:14;;;;;;;0.32;0.20;;;22.90;67.80;;;;;;4212040;28;20073;-68
2022/07/17 07:36:15;;;;;;;3.50;0.95;;;22.90;68.00;;;;;;4212394;28;20047;-67
2022/07/17 07:38:16;;;;;;;0.43;0.43;;;23.00;68.20;;;;;;4211695;28;20036;-66
2022/07/17 07:40:17;;;;;;;0.65;0.40;;;23.00;68.20;;;;;;4211553;28;20728;-67
2022/07/17 07:42:20;;;;;;;2.75;0.30;;;23.10;68.20;;;;;;4212023;28;20036;-68
2022/07/17 07:44:21;;;;;;;0.80;0.30;;;23.20;68.20;;;;;;4211497;28;20530;-67
2022/07/17 07:46:22;;;;;;;2.78;0.40;;;23.20;68.30;;;;;;4212101;28;20023;-66
2022/07/17 07:48:23;;;;;;;3.40;0.30;;;23.20;68.10;;;;;;4211300;28;20040;-68
2022/07/17 07:50:25;;;;;;;2.38;0.73;;;23.40;68.10;;;;;;4211566;28;20028;-66
2022/07/17 07:52:27;;;;;;;1.67;0.55;;;23.60;68.50;;;;;;4211601;28;20086;-66
2022/07/17 07:54:28;;;;;;;1.55;0.30;;;23.70;67.60;;;;;;4211641;28;20183;-67
2022/07/17 07:56:29;;;;;;;2.78;0.40;;;23.80;67.50;;;;;;4209904;28;20082;-67
2022/07/17 07:58:30;;;;;;;1.63;0.40;;;23.70;67.30;;;;;;4211678;28;20086;-67
2022/07/17 08:00:32;;;;;;;2.78;0.38;;;23.80;67.10;;;;;;4211444;28;20020;-67
2022/07/17 08:02:34;;;;;;;3.15;0.20;;;23.70;66.80;;;;;;4211538;28;20052;-66
2022/07/17 08:04:35;;;;;;;3.53;0.80;;;23.80;66.50;;;;;;4211567;28;20032;-67
2022/07/17 08:06:36;;;;;;;5.78;0.35;;;23.80;67.00;;;;;;4211502;28;20373;-68
2022/07/17 08:08:37;;;;;;;1.65;0.20;;;23.70;65.50;;;;;;4211551;28;20101;-67
2022/07/17 08:10:38;;;;;;;0.25;0.20;;;23.70;65.90;;;;;;4211288;28;20083;-67
2022/07/17 08:12:39;;;;;;;1.60;0.20;;;23.50;65.20;;;;;;4211505;28;20040;-68
2022/07/17 08:14:41;;;;;;;2.67;0.30;;;23.70;65.30;;;;;;4210735;28;20531;-66
2022/07/17 08:16:42;;;;;;;1.58;0.20;;;23.80;64.90;;;;;;4211211;28;20073;-67
2022/07/17 08:18:43;;;;;;;0.98;0.30;;;23.90;64.10;;;;;;4211194;28;20078;-68
2022/07/17 08:20:44;;;;;;;4.50;0.15;;;23.90;63.70;;;;;;4211113;28;20036;-66
2022/07/17 08:22:47;;;;;;;2.78;0.55;;;23.70;62.90;;;;;;4211486;28;20094;-67
2022/07/17 08:24:49;;;;;;;0.85;0.47;;;23.60;62.70;;;;;;4210781;28;20024;-67
2022/07/17 08:26:50;;;;;;;0.95;0.30;;;23.70;62.90;;;;;;4211072;28;20024;-68
2022/07/17 08:28:51;;;;;;;2.95;0.30;;;23.90;62.90;;;;;;4211531;28;20040;-67
2022/07/17 08:30:52;;;;;;;2.95;0.30;;;24.00;63.50;;;;;;4210995;28;20295;-67
2022/07/17 08:32:53;;;;;;;0.50;0.10;;;24.10;62.70;;;;;;4211224;28;20097;-66
2022/07/17 08:34:54;;;;;;;0.93;0.43;;;24.20;62.90;;;;;;4210748;28;20418;-66
2022/07/17 08:36:55;;;;;;;0.45;0.28;;;24.20;62.70;;;;;;4211208;28;20040;-66
2022/07/17 08:38:57;;;;;;;4.70;0.40;;;24.30;62.70;;;;;;4211020;28;20016;-67
2022/07/17 08:40:59;;;;;;;5.75;0.20;;;24.20;62.10;;;;;;4210938;28;20373;-68
2022/07/17 08:43:01;;;;;;;1.77;0.40;;;24.10;61.80;;;;;;4211181;28;20481;-66
2022/07/17 08:45:02;;;;;;;2.95;0.50;;;23.90;61.50;;;;;;4210395;28;20081;-65
2022/07/17 08:47:05;;;;;;;0.73;0.38;;;23.70;61.30;;;;;;4211047;28;20062;-66
2022/07/17 08:49:07;;;;;;;1.65;0.20;;;23.50;61.20;;;;;;4209934;28;20050;-67
2022/07/17 08:51:11;;;;;;;2.50;0.20;;;23.50;61.10;;;;;;4210847;28;20028;-68
2022/07/17 08:53:12;;;;;;;2.75;0.28;;;23.60;61.50;;;;;;4210737;28;20083;-66
2022/07/17 08:55:14;;;;;;;0.93;0.28;;;23.80;61.00;;;;;;4210653;28;20017;-68
2022/07/17 08:57:15;;;;;;;0.50;0.30;;;23.90;60.50;;;;;;4210559;28;20449;-68
2022/07/17 08:59:17;;;;;;;0.55;0.30;;;23.90;60.60;;;;;;4210475;28;20020;-68
2022/07/17 09:01:19;;;;;;;1.13;0.25;;;24.00;60.60;;;;;;4209976;28;20085;-67
2022/07/17 09:03:23;;;;;;;1.80;0.22;;;24.00;60.80;;;;;;4210173;28;20073;-68
2022/07/17 09:05:27;;;;;;;1.30;0.30;;;24.00;61.00;;;;;;4209807;28;20089;-67
2022/07/17 09:07:28;;;;;;;4.70;0.63;;;24.00;60.70;;;;;;4210221;28;20106;-67
2022/07/17 09:09:30;;;;;;;1.75;0.28;;;24.10;59.10;;;;;;4210219;28;20032;-69
2022/07/17 09:11:41;;;;;;;4.20;0.30;;;23.90;58.00;;;;;;4210447;28;20032;-69
2022/07/17 09:13:46;;;;;;;1.00;0.28;;;23.70;57.10;;;;;;4210481;28;20044;-68
2022/07/17 09:15:50;;;;;;;5.82;0.98;;;23.60;58.10;;;;;;4210020;28;20036;-68
2022/07/17 09:17:53;;;;;;;3.33;0.45;;;23.20;58.80;;;;;;4210049;28;20040;-68
2022/07/17 09:19:55;;;;;;;2.35;0.30;;;22.90;59.80;;;;;;4209608;28;20053;-68
2022/07/17 09:22:11;;;;;;;0.22;0.10;;;23.00;60.00;;;;;;4210057;28;20097;-68
2022/07/17 09:24:12;;;;;;;1.92;0.20;;;23.20;60.10;;;;;;4209714;28;20024;-67
2022/07/17 09:26:15;;;;;;;0.93;0.10;;;23.50;60.20;;;;;;4209779;28;20510;-67
2022/07/17 09:28:17;;;;;;;1.65;0.20;;;23.70;60.10;;;;;;4209637;28;20059;-67
2022/07/17 09:30:19;;;;;;;1.50;0.40;;;23.80;60.10;;;;;;4209748;28;20035;-68
2022/07/17 09:32:21;;;;;;;4.65;0.60;;;23.80;59.80;;;;;;4209382;28;20515;-67
2022/07/17 09:34:23;;;;;;;1.75;0.30;;;23.70;59.80;;;;;;4209585;28;20020;-69
2022/07/17 09:36:25;;;;;;;2.55;0.25;;;23.70;59.90;;;;;;4208569;28;20039;-67
2022/07/17 09:38:35;;;;;;;2.72;0.20;;;23.70;60.00;;;;;;4209665;28;20040;-68
2022/07/17 09:42:56;;;;;;;2.83;0.73;;;23.40;60.20;;;;;;4210283;28;20040;-70
2022/07/17 09:45:08;;;;;;;0.82;0.30;;;23.30;60.30;;;;;;4208656;28;20077;-67
2022/07/17 09:47:09;;;;;;;1.90;0.17;;;23.30;60.60;;;;;;4209388;28;20039;-67
2022/07/17 09:49:13;;;;;;;1.58;0.30;;;23.30;60.50;;;;;;4209015;28;20082;-67
2022/07/17 09:51:18;;;;;;;2.15;0.40;;;23.30;60.30;;;;;;4209272;28;20040;-67
2022/07/17 09:53:19;;;;;;;0.73;0.20;;;23.40;60.10;;;;;;4209333;28;20054;-67
2022/07/17 09:55:22;;;;;;;3.05;0.30;;;23.40;60.30;;;;;;4209448;28;20035;-67
2022/07/17 09:57:27;;;;;;;1.33;0.30;;;23.40;60.10;;;;;;4209599;28;20105;-66
2022/07/17 09:59:34;;;;;;;0.65;0.20;;;23.40;59.80;;;;;;4209619;28;20040;-67
2022/07/17 10:01:38;;;;;;;0.57;0.45;;;23.40;59.90;;;;;;4209608;28;20387;-68
2022/07/17 10:03:40;;;;;;;1.60;0.38;;;23.50;59.60;;;;;;4209336;28;20473;-66
2022/07/17 10:05:41;;;;;;;2.35;0.50;;;23.50;59.60;;;;;;4209037;28;20028;-67
2022/07/17 10:07:45;;;;;;;2.15;0.35;;;23.70;59.60;;;;;;4209418;28;20902;-67
2022/07/17 10:09:46;;;;;;;4.80;0.77;;;23.80;59.40;;;;;;4208319;28;20490;-68
2022/07/17 10:11:48;;;;;;;3.25;0.57;;;23.50;59.10;;;;;;4209491;28;20040;-68
2022/07/17 10:13:52;;;;;;;1.23;0.30;;;23.50;59.70;;;;;;4209227;28;20032;-68
2022/07/17 10:15:53;;;;;;;0.73;0.22;;;23.50;59.60;;;;;;4209008;28;20089;-67
2022/07/17 10:18:07;;;;;;;0.30;0.10;;;23.50;59.40;;;;;;4209488;28;20089;-68
2022/07/17 10:20:10;;;;;;;4.18;0.30;;;23.40;58.20;;;;;;4209082;28;20024;-68
2022/07/17 10:22:11;;;;;;;0.50;0.20;;;23.30;58.40;;;;;;4209511;28;20044;-68
2022/07/17 10:24:13;;;;;;;1.75;0.20;;;23.30;57.90;;;;;;4208873;28;20032;-67
2022/07/17 10:26:14;;;;;;;0.20;0.15;;;23.40;57.50;;;;;;4209352;28;20079;-66
2022/07/17 10:28:16;;;;;;;1.27;0.35;;;23.30;57.50;;;;;;4209320;28;20097;-67
2022/07/17 10:30:24;;;;;;;4.03;0.20;;;23.40;57.80;;;;;;4209805;28;20047;-68
2022/07/17 10:32:26;;;;;;;2.50;0.32;;;23.30;56.70;;;;;;4209208;28;20482;-67
2022/07/17 10:34:39;;;;;;;0.40;0.28;;;23.30;57.40;;;;;;4209343;28;20085;-66
2022/07/17 10:36:42;;;;;;;1.00;0.30;;;23.40;56.50;;;;;;4207851;28;20061;-67